METAR Data
IDs: Format: Raw Decoded Include TAF

Data at: 1332 UTC 07 Jul 2020

KBVY 071253Z 16006KT 10SM FEW010 BKN070 20/17 A3018 RMK AO2 SLP214 T02000172
KBVY 071245Z 18006KT 10SM FEW009 SCT070 21/17 A3017 RMK AO2 T02060172
KBVY 071153Z 15005KT 10SM OVC006 19/17 A3018 RMK AO2 CIG 006V009 SLP213 T01890172 10194 20150 50005
KBVY 071130Z 14006KT 10SM BKN006 OVC070 19/18 A3018 RMK AO2 T01890178
KBVY 071119Z 14006KT 10SM SCT006 OVC070 18/17 A3018 RMK AO2 T01830172
KBVY 071053Z 15006KT 10SM BKN006 OVC070 18/17 A3018 RMK AO2 CIG 005V009 SLP215 T01830172
KBVY 070953Z AUTO 13005KT 10SM BKN005 OVC070 18/17 A3017 RMK AO2 SLP212 T01780167
KBVY 070943Z AUTO 14004KT 10SM BKN005 OVC070 17/17 A3017 RMK AO2 T01720167
KBVY 070934Z AUTO 15004KT 10SM SCT005 OVC070 17/17 A3017 RMK AO2 T01720167
KBVY 070853Z AUTO 00000KT 10SM BKN065 BKN080 17/16 A3016 RMK AO2 SLP208 T01670156 53004
KBVY 070753Z AUTO 00000KT 10SM BKN075 15/14 A3015 RMK AO2 SLP203 T01500144
KBVY 070653Z AUTO 14003KT 10SM FEW075 16/16 A3015 RMK AO2 SLP203 T01610156
KBVY 070553Z AUTO 14003KT 10SM FEW090 16/15 A3015 RMK AO2 SLP204 T01560150 10183 20156 58001
KBVY 070453Z AUTO 15003KT 10SM FEW085 16/15 A3015 RMK AO2 SLP205 T01610150 402330161
KBVY 070353Z AUTO 00000KT 10SM FEW090 17/16 A3015 RMK AO2 SLP205 T01670156
KBVY 070307Z AUTO 00000KT 10SM SCT007 17/16 A3015 RMK AO2 T01720156
KBVY 070253Z AUTO 18003KT 10SM BKN008 17/16 A3015 RMK AO2 SLP205 T01720156 53013
KBVY 070218Z AUTO 18004KT 10SM FEW008 BKN090 17/16 A3015 RMK AO2 T01720156
KBVY 070153Z AUTO 15003KT 10SM CLR 17/16 A3014 RMK AO2 SLP200 T01670156
KBVY 070053Z 13005KT 10SM CLR 17/16 A3013 RMK AO2 SLP196 T01720156
KBVY 062353Z 12006KT 10SM CLR 18/16 A3012 RMK AO2 SLP192 T01830161 10233 20183 50008
KBVY 062253Z 14007KT 10SM CLR 19/16 A3012 RMK AO2 SLP195 T01940161
KBVY 062153Z 15008KT 10SM CLR 21/14 A3010 RMK AO2 SLP188 T02110144
KBVY 062053Z 15006KT 10SM CLR 23/17 A3009 RMK AO2 SLP184 T02280167 58003
KBVY 061953Z 06008KT 10SM CLR 23/15 A3010 RMK AO2 SLP188 T02330150
KBVY 061853Z 09006KT 10SM CLR 23/16 A3011 RMK AO2 SLP190 T02280161
KBVY 061753Z 05007KT 010V090 10SM CLR 23/18 A3010 RMK AO2 SLP187 T02330178 10233 20189 51000
KBVY 061653Z 06008KT 020V090 10SM SCT013 23/18 A3010 RMK AO2 SLP187 T02280178
KBVY 061649Z 01008KT 10SM SCT012 23/18 A3010 RMK AO2
KBVY 061553Z 06009KT 10SM BKN012 22/18 A3010 RMK AO2 SLP187 T02170183
KBVY 061532Z 05007KT 10SM OVC011 21/18 A3010 RMK AO2 T02110178
KBVY 061453Z 03005KT 7SM OVC006 19/18 A3010 RMK AO2 CIG 005V010 SLP186 T01940178 53022
KBVY 061353Z 04008KT 10SM BKN007 OVC012 20/18 A3007 RMK AO2 CIG 006V009 SLP176 T02000178
KBVY 061253Z 03006KT 10SM OVC005 20/18 A3005 RMK AO2 CIG 002V009 SLP171 T02000183
KBVY 061229Z VRB05KT 4SM BR OVC004 19/18 A3005 RMK AO2 T01890183 $
KBVY 061208Z 36005KT 10SM BKN005 OVC010 19/18 A3004 RMK AO2 CIG 003V009 T01890178 $
KBVY 061153Z 35004KT 10SM BKN004 OVC010 19/18 A3003 RMK AO2 CIG 003V007 SLP164 7//// T01890178 10189 20167 53011 $
KBVY 061144Z 36005KT 8SM BKN004 OVC010 18/18 A3003 RMK AO2 CIG 003V007 T01830178 $
KBVY 061126Z 01004KT 7SM OVC005 18/18 A3003 RMK AO2 CIG 002V008 T01830178 $
KBVY 061101Z 36006KT 4SM BR OVC003 18/17 A3002 RMK AO2 T01780172 $
KBVY 061053Z 36006KT 2 1/2SM BR OVC003 18/17 A3002 RMK AO2 SLP159 T01780172 $
KBVY 061034Z AUTO 35004KT 2SM BR OVC003 18/17 A3001 RMK AO2 T01780172 $
KBVY 061014Z AUTO 35006KT 3SM BR OVC002 17/17 A3001 RMK AO2 T01720172 $
KBVY 061003Z AUTO 36007KT 1 1/4SM BR OVC002 17/17 A3001 RMK AO2 T01720172 $
KBVY 060953Z AUTO 35007KT 3/4SM BR OVC002 17/17 A3000 RMK AO2 SLP154 T01720172 $
KBVY 060934Z AUTO 35005KT 1/4SM FG VV002 17/17 A2999 RMK AO2 T01720172 $
KBVY 060927Z AUTO 35006KT 1/2SM FG VV002 17/17 A2999 RMK AO2 T01720172 $
KBVY 060909Z AUTO 34003KT 1SM BR VV002 17/17 A2999 RMK AO2 T01720172 $
KBVY 060853Z AUTO 00000KT 1/4SM FG VV002 17/17 A2998 RMK AO2 SLP147 T01720172 53003 $
KBVY 060831Z AUTO 00000KT 1/4SM FG VV002 17/17 A2998 RMK AO2 T01670167 $
KBVY 060753Z AUTO 00000KT 1/4SM FG VV001 17/17 A2997 RMK AO2 SLP143 T01670167 $
KBVY 060653Z AUTO 00000KT 1/2SM FG VV002 17/17 A2997 RMK AO2 SLP144 T01720167 $
KBVY 060640Z AUTO 00000KT 1/4SM FG VV002 17/17 A2997 RMK AO2 T01720172 $
KBVY 060548Z AUTO 01004KT 3/4SM BR BKN002 17/17 A2996 RMK AO2 SLP140 6//// T01720167 10200 20167 55004 $
KBVY 060547Z AUTO 02004KT 3/4SM BR BKN002 17/17 A2996 RMK AO2 $
KBVY 060541Z AUTO 01005KT 2SM BR BKN002 17/17 A2996 RMK AO2 T01720167 $
KBVY 060513Z AUTO 02004KT 10SM SCT004 17/17 A2996 RMK AO2 T01720167 $
KBVY 060453Z AUTO 32003KT 10SM CLR 17/17 A2994 RMK AO2 SLP134 P0002 T01720167 402670172 $
KBVY 060353Z AUTO 00000KT 10SM FEW120 18/17 A2994 RMK AO2 LTG DSNT E-S RAE27 TSE20 SLP133 T01780167 $
KBVY 060324Z AUTO 01004KT 10SM -RA FEW007 SCT043 OVC110 18/17 A2995 RMK AO2 LTG DSNT NE-S TSE20 T01830172 PNO $
KBVY 060310Z AUTO VRB04G15KT 3SM TSRA BR SCT007 BKN032 OVC085 19/18 A2996 RMK AO2 LTG DSNT ALQDS T01890178 PNO $
KBVY 060306Z AUTO 05006G15KT 2 1/2SM TSRA BR BKN007 BKN032 OVC040 19/18 A2996 RMK AO2 LTG DSNT ALQDS T01890178 PNO $
KBVY 060253Z AUTO 34014G18KT 6SM -TSRA BR OVC007 19/19 A2998 RMK AO2 LTG DSNT ALQDS RAB03 TSB51 CIG 004V012 PRESRR SLP145 P0000 60000 T01940189 51024 $
KBVY 060251Z AUTO 35016KT 7SM -TSRA SCT005 OVC009 20/19 A2997 RMK AO2 LTG DSNT ALQDS RAB03 TSB51 PRESRR P0000 $
KBVY 060234Z AUTO 36005KT 8SM -RA BKN009 BKN120 20/19 A2995 RMK AO2 LTG DSNT ALQDS RAB03 P0000 T02000189 $
KBVY 060153Z AUTO 02004KT 10SM BKN090 20/19 A2993 RMK AO2 LTG DSNT SW-N SLP128 T02000189 $